createdAt,value
2023-02-22T00:01:07.721Z,4.67
2023-02-22T00:03:34.981Z,4.40
2023-02-22T00:06:05.185Z,5.28
2023-02-22T00:08:36.234Z,5.18
2023-02-22T00:11:09.006Z,7.07
2023-02-22T00:13:37.249Z,6.77
2023-02-22T00:16:04.621Z,6.53
2023-02-22T00:18:31.000Z,6.78
2023-02-22T00:21:01.815Z,5.90
2023-02-22T00:23:30.291Z,6.00
2023-02-22T00:26:00.276Z,5.73
2023-02-22T00:28:26.978Z,5.78
2023-02-22T00:30:55.351Z,5.32
2023-02-22T00:33:22.284Z,5.38
2023-02-22T00:35:48.962Z,5.22
2023-02-22T00:38:18.298Z,5.43
2023-02-22T00:40:45.524Z,5.00
2023-02-22T00:43:12.256Z,4.78
2023-02-22T00:45:38.890Z,4.78
2023-02-22T00:48:06.547Z,5.15
2023-02-22T00:50:33.560Z,4.80
2023-02-22T00:53:01.308Z,4.82
2023-02-22T00:55:31.346Z,5.00
2023-02-22T00:57:59.543Z,3.60
2023-02-22T01:00:39.978Z,4.50
2023-02-22T01:03:14.891Z,4.07
2023-02-22T01:05:42.305Z,3.83
2023-02-22T01:08:10.464Z,4.55
2023-02-22T01:10:38.028Z,3.90
2023-02-22T01:13:08.717Z,4.13
2023-02-22T01:15:37.229Z,3.53
2023-02-22T01:18:05.625Z,3.80
2023-02-22T01:20:32.542Z,3.90
2023-02-22T01:23:00.992Z,3.35
2023-02-22T01:25:30.079Z,3.47
2023-02-22T01:27:58.532Z,3.63
2023-02-22T01:30:28.485Z,3.22
2023-02-22T01:32:57.185Z,3.53
2023-02-22T01:35:27.892Z,3.33
2023-02-22T01:37:54.977Z,3.85
2023-02-22T01:40:42.866Z,3.60
2023-02-22T01:43:18.825Z,3.10
2023-02-22T01:45:54.761Z,3.60
2023-02-22T01:48:32.657Z,4.25
2023-02-22T01:51:11.507Z,4.15
2023-02-22T01:53:58.504Z,3.63
2023-02-22T01:56:29.007Z,4.10
2023-02-22T01:59:01.482Z,3.58
2023-02-22T02:01:29.511Z,3.40
2023-02-22T02:03:59.925Z,3.17
2023-02-22T02:06:31.347Z,3.80
2023-02-22T02:09:04.565Z,3.05
2023-02-22T02:11:32.324Z,3.00
2023-02-22T02:13:59.169Z,3.03
2023-02-22T02:16:34.603Z,3.83
2023-02-22T02:19:01.365Z,3.33
2023-02-22T02:21:53.601Z,3.22
2023-02-22T02:24:41.280Z,2.83
2023-02-22T02:27:19.337Z,3.63
2023-02-22T02:30:23.700Z,3.15
2023-02-22T02:32:59.088Z,3.47
2023-02-22T02:35:38.134Z,3.53
2023-02-22T02:38:22.894Z,3.83
2023-02-22T02:41:01.055Z,3.42
2023-02-22T02:43:39.363Z,4.03
2023-02-22T02:46:29.165Z,3.27
2023-02-22T02:49:02.082Z,3.00
2023-02-22T02:51:34.079Z,3.35
2023-02-22T02:54:03.286Z,3.50
2023-02-22T02:56:30.824Z,3.83
2023-02-22T02:58:57.401Z,4.33
2023-02-22T03:01:42.795Z,3.50
2023-02-22T03:04:23.432Z,3.70
2023-02-22T03:07:27.822Z,3.55
2023-02-22T03:10:16.323Z,3.70
2023-02-22T03:12:55.590Z,3.70
2023-02-22T03:15:33.574Z,3.53
2023-02-22T03:18:08.973Z,3.42
2023-02-22T03:20:45.945Z,3.72
2023-02-22T03:23:35.464Z,3.45
2023-02-22T03:26:07.476Z,3.67
2023-02-22T03:28:41.233Z,4.05
2023-02-22T03:31:12.815Z,3.50
2023-02-22T03:33:47.781Z,3.63
2023-02-22T03:36:25.233Z,3.90
2023-02-22T03:38:56.733Z,3.80
2023-02-22T03:41:25.946Z,3.63
2023-02-22T03:44:02.011Z,3.88
2023-02-22T03:46:30.660Z,4.25
2023-02-22T03:49:05.257Z,3.88
2023-02-22T03:51:31.888Z,3.70
2023-02-22T03:53:58.590Z,3.60
2023-02-22T03:56:38.055Z,3.55
2023-02-22T03:59:08.237Z,3.80
2023-02-22T04:01:35.961Z,3.97
2023-02-22T04:04:02.893Z,3.77
2023-02-22T04:06:29.803Z,4.07
2023-02-22T04:08:59.058Z,3.70
2023-02-22T04:11:25.959Z,3.72
2023-02-22T04:13:54.910Z,4.22
2023-02-22T04:16:21.597Z,3.80
2023-02-22T04:18:48.143Z,3.75
2023-02-22T04:21:15.317Z,3.58
2023-02-22T04:23:42.038Z,4.00
2023-02-22T04:26:08.632Z,4.47
2023-02-22T04:28:35.210Z,3.60
2023-02-22T04:31:01.892Z,3.80
2023-02-22T04:33:28.512Z,3.80
2023-02-22T04:35:57.902Z,3.83
2023-02-22T04:38:26.271Z,3.92
2023-02-22T04:40:55.633Z,3.73
2023-02-22T04:43:22.208Z,3.85
2023-02-22T04:45:48.851Z,3.83
2023-02-22T04:48:15.419Z,4.05
2023-02-22T04:50:42.311Z,3.88
2023-02-22T04:53:09.267Z,3.40
2023-02-22T04:55:35.933Z,4.20
2023-02-22T04:58:02.612Z,4.03
2023-02-22T05:00:29.180Z,4.15
2023-02-22T05:02:55.768Z,3.92
2023-02-22T05:05:23.204Z,4.07
2023-02-22T05:07:50.345Z,3.78
2023-02-22T05:10:17.286Z,3.80
2023-02-22T05:12:43.921Z,3.90
2023-02-22T05:15:11.456Z,4.03
2023-02-22T05:17:38.048Z,4.20
2023-02-22T05:20:05.378Z,3.22
2023-02-22T05:22:32.006Z,4.00
2023-02-22T05:24:58.659Z,4.30
2023-02-22T05:27:25.345Z,3.95
2023-02-22T05:29:51.885Z,4.73
2023-02-22T05:32:18.727Z,4.10
2023-02-22T05:34:45.834Z,4.22
2023-02-22T05:37:12.220Z,4.57
2023-02-22T05:39:38.595Z,5.03
2023-02-22T05:42:05.232Z,5.28
2023-02-22T05:44:31.813Z,5.30
2023-02-22T05:46:58.403Z,5.32
2023-02-22T05:49:24.994Z,4.90
2023-02-22T05:51:51.901Z,4.47
2023-02-22T05:54:18.476Z,5.57
2023-02-22T05:56:44.860Z,6.10
2023-02-22T05:59:11.484Z,5.82
2023-02-22T06:01:38.068Z,6.07
2023-02-22T06:04:04.999Z,5.82
2023-02-22T06:06:31.642Z,5.73
2023-02-22T06:08:58.321Z,5.72
2023-02-22T06:11:24.905Z,6.20
2023-02-22T06:13:52.587Z,5.95
2023-02-22T06:16:21.224Z,5.70
2023-02-22T06:18:49.017Z,5.50
2023-02-22T06:21:15.962Z,5.00
2023-02-22T06:23:42.826Z,4.85
2023-02-22T06:26:09.205Z,4.68
2023-02-22T06:28:35.601Z,4.93
2023-02-22T06:31:01.968Z,4.90
2023-02-22T06:33:28.543Z,5.18
2023-02-22T06:35:55.183Z,4.30
2023-02-22T06:38:23.884Z,5.53
2023-02-22T06:40:51.436Z,5.80
2023-02-22T06:43:18.052Z,5.00
2023-02-22T06:45:44.691Z,5.40
2023-02-22T06:48:11.238Z,5.03
2023-02-22T06:50:37.857Z,5.35
2023-02-22T06:53:05.075Z,6.90
2023-02-22T06:55:34.005Z,10.75
2023-02-22T06:58:01.065Z,8.43
2023-02-22T07:00:29.139Z,7.68
2023-02-22T07:02:56.397Z,7.55
2023-02-22T07:05:25.116Z,6.20
2023-02-22T07:07:53.633Z,6.00
2023-02-22T07:10:25.836Z,5.75
2023-02-22T07:12:52.804Z,5.32
2023-02-22T07:15:25.642Z,5.65
2023-02-22T07:17:52.679Z,5.65
2023-02-22T07:20:20.558Z,4.40
2023-02-22T07:22:48.004Z,4.85
2023-02-22T07:25:14.682Z,5.18
2023-02-22T07:27:42.854Z,5.88
2023-02-22T07:30:26.163Z,6.28
2023-02-22T07:32:55.272Z,6.73
2023-02-22T07:35:27.892Z,6.80
2023-02-22T07:37:56.040Z,6.93
2023-02-22T07:40:24.358Z,6.97
2023-02-22T07:42:56.881Z,7.10
2023-02-22T07:45:25.584Z,7.90
2023-02-22T07:47:52.295Z,7.18
2023-02-22T07:50:20.448Z,10.52
2023-02-22T07:52:50.435Z,8.25
2023-02-22T07:55:20.029Z,10.15
2023-02-22T07:57:47.637Z,10.20
2023-02-22T08:00:16.597Z,7.80
2023-02-22T08:02:43.612Z,9.73
2023-02-22T08:05:11.484Z,8.30
2023-02-22T08:07:38.420Z,8.32
2023-02-22T08:10:07.614Z,9.27
2023-02-22T08:12:36.452Z,7.95
2023-02-22T08:15:08.150Z,9.60
2023-02-22T08:17:34.731Z,9.73
2023-02-22T08:20:01.830Z,8.90
2023-02-22T08:22:29.032Z,8.57
2023-02-22T08:24:55.637Z,9.57
2023-02-22T08:27:27.965Z,9.98
2023-02-22T08:29:54.578Z,9.10
2023-02-22T08:32:21.707Z,9.95
2023-02-22T08:34:48.906Z,9.00
2023-02-22T08:37:16.704Z,9.98
2023-02-22T08:39:43.084Z,8.80
2023-02-22T08:42:10.530Z,9.88
2023-02-22T08:44:38.982Z,9.85
2023-02-22T08:47:06.348Z,10.97
2023-02-22T08:49:33.790Z,10.07
2023-02-22T08:52:00.189Z,10.55
2023-02-22T08:54:26.897Z,9.70
2023-02-22T08:56:53.352Z,11.75
2023-02-22T08:59:19.903Z,11.30
2023-02-22T09:01:46.590Z,10.55
2023-02-22T09:04:13.113Z,11.65
2023-02-22T09:06:43.582Z,12.02
2023-02-22T09:09:10.092Z,11.25
2023-02-22T09:11:36.676Z,11.80
2023-02-22T09:14:03.052Z,11.70
2023-02-22T09:16:30.949Z,12.20
2023-02-22T09:18:57.547Z,12.15
2023-02-22T09:21:23.929Z,12.70
2023-02-22T09:23:50.507Z,12.13
2023-02-22T09:26:17.072Z,12.50
2023-02-22T09:28:43.450Z,13.63
2023-02-22T09:31:09.777Z,13.18
2023-02-22T09:33:36.352Z,13.48
2023-02-22T09:36:02.718Z,12.83
2023-02-22T09:38:30.431Z,12.82
2023-02-22T09:41:16.740Z,12.10
2023-02-22T09:44:17.964Z,12.68
2023-02-22T09:46:46.318Z,11.93
2023-02-22T09:49:17.608Z,11.33
2023-02-22T09:52:08.260Z,11.60
2023-02-22T09:54:43.519Z,10.65
2023-02-22T09:57:18.099Z,10.48
2023-02-22T09:59:55.484Z,10.70
2023-02-22T10:02:34.543Z,9.43
2023-02-22T10:05:37.740Z,9.90
2023-02-22T10:08:10.384Z,10.90
2023-02-22T10:10:40.596Z,10.55
2023-02-22T10:13:16.287Z,14.13
2023-02-22T10:15:45.960Z,10.23
2023-02-22T10:18:49.703Z,9.48
2023-02-22T10:21:33.136Z,10.20
2023-02-22T10:24:27.493Z,9.23
2023-02-22T10:26:55.674Z,9.20
2023-02-22T10:29:40.089Z,9.60
2023-02-22T10:32:28.852Z,9.15
2023-02-22T10:34:58.229Z,9.00
2023-02-22T10:37:25.647Z,7.53
2023-02-22T10:39:59.344Z,9.68
2023-02-22T10:42:28.445Z,8.30
2023-02-22T10:44:55.004Z,8.32
2023-02-22T10:47:22.226Z,8.13
2023-02-22T10:49:55.757Z,7.70
2023-02-22T10:52:36.732Z,7.80
2023-02-22T10:55:14.939Z,9.20
2023-02-22T10:57:48.002Z,7.70
2023-02-22T11:00:51.608Z,9.30
2023-02-22T11:03:21.233Z,7.22
2023-02-22T11:05:48.617Z,7.65
2023-02-22T11:08:21.144Z,8.00
2023-02-22T11:10:54.061Z,7.90
2023-02-22T11:13:31.726Z,7.72
2023-02-22T11:16:18.504Z,7.05
2023-02-22T11:18:47.180Z,7.15
2023-02-22T11:21:16.859Z,7.73
2023-02-22T11:23:44.950Z,7.07
2023-02-22T11:26:15.162Z,7.38
2023-02-22T11:28:49.601Z,7.53
2023-02-22T11:31:28.855Z,6.90
2023-02-22T11:33:58.268Z,7.03
2023-02-22T11:36:41.896Z,7.50
2023-02-22T11:39:28.664Z,7.22
2023-02-22T11:41:58.212Z,6.07
2023-02-22T11:44:32.645Z,7.38
2023-02-22T11:47:06.787Z,6.47
2023-02-22T11:49:38.588Z,6.70
2023-02-22T11:52:27.173Z,8.90
2023-02-22T11:55:42.216Z,6.43
2023-02-22T11:58:18.509Z,6.25
2023-02-22T12:01:17.662Z,7.00
2023-02-22T12:04:26.541Z,6.60
2023-02-22T12:07:17.745Z,7.22
2023-02-22T12:10:19.599Z,5.43
2023-02-22T12:13:01.901Z,6.50
2023-02-22T12:15:30.537Z,5.87
2023-02-22T12:18:07.719Z,6.22
2023-02-22T12:20:57.117Z,6.20
2023-02-22T12:24:28.736Z,5.47
2023-02-22T12:27:05.820Z,6.07
2023-02-22T12:29:43.852Z,6.30
2023-02-22T12:32:17.814Z,6.78
2023-02-22T12:34:59.688Z,6.60
2023-02-22T12:37:39.579Z,6.53
2023-02-22T12:40:16.376Z,6.68
2023-02-22T12:43:05.937Z,5.43
2023-02-22T12:45:45.109Z,6.20
2023-02-22T12:48:42.717Z,5.95
2023-02-22T12:52:03.025Z,6.10
2023-02-22T12:54:45.807Z,6.22
2023-02-22T12:57:34.656Z,5.47
2023-02-22T13:00:20.281Z,5.78
2023-02-22T13:02:58.023Z,5.65
2023-02-22T13:05:24.718Z,6.13
2023-02-22T13:08:28.990Z,5.80
2023-02-22T13:11:25.651Z,5.47
2023-02-22T13:14:17.120Z,6.47
2023-02-22T13:16:54.780Z,5.10
2023-02-22T13:19:35.834Z,5.55
2023-02-22T13:22:09.322Z,5.28
2023-02-22T13:24:49.805Z,5.10
2023-02-22T13:27:26.363Z,5.47
2023-02-22T13:29:59.030Z,5.90
2023-02-22T13:32:34.365Z,4.88
2023-02-22T13:35:35.641Z,4.97
2023-02-22T13:38:25.254Z,5.73
2023-02-22T13:41:03.764Z,4.93
2023-02-22T13:44:02.132Z,5.05
2023-02-22T13:46:54.791Z,4.85
2023-02-22T13:49:30.622Z,4.95
2023-02-22T13:52:01.576Z,5.10
2023-02-22T13:54:39.956Z,4.60
2023-02-22T13:57:26.461Z,4.95
2023-02-22T14:00:15.023Z,4.90
2023-02-22T14:03:12.207Z,4.93
2023-02-22T14:05:42.096Z,4.53
2023-02-22T14:08:18.811Z,4.60
2023-02-22T14:10:55.928Z,4.82
2023-02-22T14:13:24.090Z,7.85
2023-02-22T14:16:02.979Z,4.65
2023-02-22T14:18:35.756Z,4.30
2023-02-22T14:21:09.532Z,4.30
2023-02-22T14:23:36.009Z,4.65
2023-02-22T14:26:25.926Z,6.28
2023-02-22T14:29:10.510Z,6.65
2023-02-22T14:31:43.628Z,6.97
2023-02-22T14:34:19.065Z,7.40
2023-02-22T14:37:09.027Z,6.28
2023-02-22T14:39:46.158Z,10.93
2023-02-22T14:42:27.795Z,7.65
2023-02-22T14:45:12.937Z,6.50
2023-02-22T14:48:17.080Z,8.75
2023-02-22T14:50:53.134Z,7.28
2023-02-22T14:53:41.188Z,5.50
2023-02-22T14:56:17.698Z,6.35
2023-02-22T14:58:46.097Z,8.90
2023-02-22T15:01:31.219Z,12.55
2023-02-22T15:04:32.375Z,7.43
2023-02-22T15:07:01.234Z,6.45
2023-02-22T15:09:33.624Z,5.95
2023-02-22T15:12:04.657Z,8.43
2023-02-22T15:14:37.720Z,11.02
2023-02-22T15:17:13.666Z,7.70
2023-02-22T15:19:42.253Z,13.50
2023-02-22T15:22:20.750Z,7.90
2023-02-22T15:25:05.279Z,6.83
2023-02-22T15:27:36.771Z,15.85
2023-02-22T15:30:08.353Z,6.40
2023-02-22T15:32:47.284Z,6.47
2023-02-22T15:35:26.416Z,7.00
2023-02-22T15:38:06.038Z,6.67
2023-02-22T15:40:33.658Z,7.15
2023-02-22T15:43:09.065Z,6.47
2023-02-22T15:45:42.750Z,6.13
2023-02-22T15:48:11.196Z,5.88
2023-02-22T15:50:39.299Z,7.93
2023-02-22T15:53:09.258Z,6.75
2023-02-22T15:55:37.065Z,5.90
2023-02-22T15:58:12.370Z,8.32
2023-02-22T16:00:42.089Z,6.47
2023-02-22T16:03:11.978Z,6.67
2023-02-22T16:05:43.946Z,6.90
2023-02-22T16:08:18.254Z,6.75
2023-02-22T16:11:04.519Z,6.85
2023-02-22T16:13:35.446Z,6.85
2023-02-22T16:16:04.861Z,6.00
2023-02-22T16:18:39.263Z,6.85
2023-02-22T16:21:13.292Z,6.63
2023-02-22T16:23:45.297Z,7.25
2023-02-22T16:26:32.878Z,7.63
2023-02-22T16:29:02.955Z,7.17
2023-02-22T16:31:35.935Z,7.68
2023-02-22T16:34:05.502Z,8.60
2023-02-22T16:36:46.963Z,10.07
2023-02-22T16:39:35.960Z,9.13
2023-02-22T16:42:04.345Z,8.00
2023-02-22T16:44:30.842Z,7.78
2023-02-22T16:46:59.022Z,9.70
2023-02-22T16:49:26.391Z,9.73
2023-02-22T16:51:56.310Z,10.10
2023-02-22T16:54:39.964Z,9.80
2023-02-22T16:57:06.690Z,9.82
2023-02-22T16:59:38.624Z,9.25
2023-02-22T17:02:07.786Z,9.70
2023-02-22T17:04:34.420Z,9.32
2023-02-22T17:07:05.166Z,8.00
2023-02-22T17:09:33.267Z,7.22
2023-02-22T17:12:00.164Z,7.10
2023-02-22T17:14:31.902Z,6.70
2023-02-22T17:17:01.361Z,7.45
2023-02-22T17:19:27.946Z,7.00
2023-02-22T17:21:54.721Z,7.93
2023-02-22T17:24:25.040Z,8.30
2023-02-22T17:26:56.246Z,10.00
2023-02-22T17:29:22.999Z,9.13
2023-02-22T17:31:50.083Z,8.63
2023-02-22T17:34:16.510Z,9.50
2023-02-22T17:36:43.798Z,9.45
2023-02-22T17:39:10.831Z,10.45
2023-02-22T17:41:40.350Z,8.40
2023-02-22T17:44:07.608Z,8.10
2023-02-22T17:46:36.312Z,8.05
2023-02-22T17:49:03.506Z,8.38
2023-02-22T17:51:29.960Z,8.63
2023-02-22T17:53:56.555Z,8.63
2023-02-22T17:56:22.988Z,8.90
2023-02-22T17:58:54.535Z,9.45
2023-02-22T18:01:31.341Z,9.25
2023-02-22T18:04:00.349Z,8.95
2023-02-22T18:06:29.883Z,9.40
2023-02-22T18:08:58.768Z,8.53
2023-02-22T18:11:26.675Z,9.68
2023-02-22T18:13:57.411Z,9.75
2023-02-22T18:16:28.506Z,10.77
2023-02-22T18:18:56.165Z,9.80
2023-02-22T18:21:23.781Z,9.13
2023-02-22T18:23:50.432Z,10.25
2023-02-22T18:26:19.178Z,10.38
2023-02-22T18:28:48.772Z,10.75
2023-02-22T18:31:20.605Z,10.27
2023-02-22T18:33:49.903Z,9.70
2023-02-22T18:36:23.398Z,10.27
2023-02-22T18:38:53.070Z,10.20
2023-02-22T18:41:21.023Z,10.57
2023-02-22T18:43:49.462Z,11.57
2023-02-22T18:46:19.604Z,13.43
2023-02-22T18:48:47.847Z,13.25
2023-02-22T18:51:17.303Z,19.48
2023-02-22T18:53:47.020Z,20.23
2023-02-22T18:56:22.159Z,22.58
2023-02-22T18:58:53.459Z,23.97
2023-02-22T19:01:20.755Z,19.83
2023-02-22T19:03:50.040Z,21.00
2023-02-22T19:06:18.026Z,19.63
2023-02-22T19:08:45.868Z,21.08
2023-02-22T19:11:18.080Z,18.40
2023-02-22T19:13:49.290Z,21.42
2023-02-22T19:16:20.169Z,20.25
2023-02-22T19:18:48.870Z,21.67
2023-02-22T19:21:16.613Z,21.48
2023-02-22T19:23:46.240Z,20.13
2023-02-22T19:26:18.982Z,20.67
2023-02-22T19:28:46.953Z,19.85
2023-02-22T19:31:19.539Z,19.20
2023-02-22T19:33:47.860Z,17.95
2023-02-22T19:36:15.611Z,17.63
2023-02-22T19:38:43.038Z,14.75
2023-02-22T19:41:12.613Z,14.55
2023-02-22T19:43:39.182Z,14.55
2023-02-22T19:46:07.824Z,12.93
2023-02-22T19:48:34.903Z,16.33
2023-02-22T19:51:06.432Z,16.05
2023-02-22T19:53:39.254Z,15.15
2023-02-22T19:56:09.428Z,14.48
2023-02-22T19:58:40.603Z,13.77
2023-02-22T20:01:29.222Z,13.67
2023-02-22T20:04:05.124Z,14.73
2023-02-22T20:06:35.173Z,14.30
2023-02-22T20:09:02.687Z,14.15
2023-02-22T20:11:29.601Z,13.43
2023-02-22T20:13:56.184Z,13.10
2023-02-22T20:16:24.092Z,13.52
2023-02-22T20:18:51.140Z,12.82
2023-02-22T20:21:32.528Z,12.93
2023-02-22T20:24:00.775Z,11.18
2023-02-22T20:26:29.510Z,10.87
2023-02-22T20:28:56.660Z,10.82
2023-02-22T20:31:23.958Z,9.77
2023-02-22T20:33:55.658Z,10.27
2023-02-22T20:36:22.313Z,9.35
2023-02-22T20:38:52.258Z,10.17
2023-02-22T20:41:25.233Z,10.98
2023-02-22T20:43:53.696Z,12.38
2023-02-22T20:46:20.089Z,11.27
2023-02-22T20:48:46.716Z,11.43
2023-02-22T20:51:15.420Z,10.13
2023-02-22T20:53:45.021Z,11.02
2023-02-22T20:56:13.096Z,10.75
2023-02-22T20:58:40.080Z,13.18
2023-02-22T21:01:08.445Z,15.55
2023-02-22T21:03:35.956Z,12.50
2023-02-22T21:06:05.138Z,12.02
2023-02-22T21:08:32.274Z,11.23
2023-02-22T21:10:59.610Z,9.18
2023-02-22T21:13:26.748Z,9.90
2023-02-22T21:15:53.476Z,8.63
2023-02-22T21:18:22.514Z,8.70
2023-02-22T21:20:50.037Z,8.20
2023-02-22T21:23:16.930Z,9.13
2023-02-22T21:25:50.736Z,9.07
2023-02-22T21:28:17.318Z,8.07
2023-02-22T21:30:44.735Z,8.63
2023-02-22T21:33:11.248Z,7.75
2023-02-22T21:35:40.423Z,8.00
2023-02-22T21:38:07.443Z,7.22
2023-02-22T21:40:35.065Z,8.83
2023-02-22T21:43:01.626Z,7.70
2023-02-22T21:45:29.474Z,9.68
2023-02-22T21:47:55.905Z,8.55
2023-02-22T21:50:25.395Z,8.80
2023-02-22T21:52:51.955Z,7.80
2023-02-22T21:55:19.248Z,7.68
2023-02-22T21:57:45.635Z,7.00
2023-02-22T22:00:20.905Z,6.65
2023-02-22T22:02:48.506Z,7.38
2023-02-22T22:05:31.754Z,7.87
2023-02-22T22:07:58.580Z,6.80
2023-02-22T22:10:28.039Z,7.10
2023-02-22T22:12:54.727Z,6.13
2023-02-22T22:15:21.320Z,6.68
2023-02-22T22:17:47.911Z,6.13
2023-02-22T22:20:15.636Z,5.68
2023-02-22T22:22:45.594Z,5.57
2023-02-22T22:25:14.310Z,5.63
2023-02-22T22:27:40.894Z,5.65
2023-02-22T22:30:08.370Z,6.70
2023-02-22T22:32:35.178Z,6.50
2023-02-22T22:35:02.003Z,7.43
2023-02-22T22:37:29.230Z,5.45
2023-02-22T22:39:56.105Z,5.70
2023-02-22T22:42:24.550Z,5.83
2023-02-22T22:44:51.750Z,5.80
2023-02-22T22:47:19.620Z,6.53
2023-02-22T22:49:47.928Z,6.80
2023-02-22T22:52:16.638Z,6.78
2023-02-22T22:54:43.972Z,6.03
2023-02-22T22:57:11.462Z,6.18
2023-02-22T22:59:37.893Z,6.40
2023-02-22T23:02:09.927Z,6.25
2023-02-22T23:04:38.158Z,6.68
2023-02-22T23:07:06.743Z,6.87
2023-02-22T23:09:35.236Z,7.72
2023-02-22T23:12:17.886Z,7.50
2023-02-22T23:14:45.594Z,7.47
2023-02-22T23:17:16.081Z,7.75
2023-02-22T23:19:45.266Z,6.67
2023-02-22T23:22:14.605Z,7.22
2023-02-22T23:24:41.696Z,6.35
2023-02-22T23:27:10.714Z,6.65
2023-02-22T23:29:39.518Z,6.82
2023-02-22T23:32:06.660Z,6.77
2023-02-22T23:34:36.056Z,6.43
2023-02-22T23:37:03.073Z,7.22
2023-02-22T23:39:29.743Z,8.63
2023-02-22T23:42:01.287Z,9.15
2023-02-22T23:44:28.417Z,8.83
2023-02-22T23:46:55.935Z,9.07
2023-02-22T23:49:25.527Z,8.27
2023-02-22T23:51:52.778Z,8.60
2023-02-22T23:54:20.703Z,8.38
2023-02-22T23:56:56.977Z,8.40
2023-02-22T23:59:26.432Z,7.05
